createdAt,value
2017-11-04T00:00:57.032Z,25.00
2017-11-04T00:03:24.512Z,26.10
2017-11-04T00:05:52.017Z,25.50
2017-11-04T00:08:30.888Z,25.87
2017-11-04T00:10:59.152Z,23.90
2017-11-04T00:13:27.412Z,26.23
2017-11-04T00:15:54.912Z,25.40
2017-11-04T00:18:22.392Z,24.73
2017-11-04T00:20:50.705Z,23.73
2017-11-04T00:23:18.192Z,25.20
2017-11-04T00:25:45.697Z,25.63
2017-11-04T00:28:13.181Z,25.63
2017-11-04T00:30:40.689Z,29.17
2017-11-04T00:33:08.172Z,26.67
2017-11-04T00:35:35.675Z,25.30
2017-11-04T00:38:03.156Z,26.20
2017-11-04T00:40:30.669Z,26.27
2017-11-04T00:42:58.149Z,25.43
2017-11-04T00:45:25.647Z,27.70
2017-11-04T00:47:53.131Z,27.30
2017-11-04T00:50:20.636Z,26.50
2017-11-04T00:52:48.882Z,23.33
2017-11-04T00:55:16.393Z,26.07
2017-11-04T00:57:44.643Z,25.37
2017-11-04T01:00:12.128Z,25.03
2017-11-04T01:02:39.631Z,25.83
2017-11-04T01:05:07.118Z,25.23
2017-11-04T01:07:34.635Z,26.90
2017-11-04T01:10:02.126Z,25.10
2017-11-04T01:12:30.392Z,24.30
2017-11-04T01:14:57.871Z,23.50
2017-11-04T01:17:25.372Z,25.90
2017-11-04T01:19:52.862Z,25.50
2017-11-04T01:22:20.367Z,26.00
2017-11-04T01:24:47.839Z,25.33
2017-11-04T01:27:15.345Z,24.53
2017-11-04T01:29:42.850Z,26.30
2017-11-04T01:32:10.352Z,26.23
2017-11-04T01:34:37.836Z,27.30
2017-11-04T01:37:06.109Z,25.60
2017-11-04T01:39:33.587Z,25.10
2017-11-04T01:42:01.095Z,23.67
2017-11-04T01:44:28.571Z,24.97
2017-11-04T01:46:56.083Z,25.40
2017-11-04T01:49:23.560Z,24.37
2017-11-04T01:51:51.060Z,25.00
2017-11-04T01:54:18.066Z,25.30
2017-11-04T01:56:45.564Z,25.50
2017-11-04T01:59:13.049Z,25.40
2017-11-04T02:01:41.321Z,24.40
2017-11-04T02:04:08.808Z,24.80
2017-11-04T02:06:37.573Z,23.53
2017-11-04T02:09:05.085Z,25.43
2017-11-04T02:11:33.359Z,25.10
2017-11-04T02:14:01.610Z,25.73
2017-11-04T02:16:29.124Z,23.93
2017-11-04T02:18:57.384Z,24.73
2017-11-04T02:21:24.884Z,24.80
2017-11-04T02:23:53.124Z,25.40
2017-11-04T02:26:20.634Z,27.10
2017-11-04T02:28:48.876Z,24.63
2017-11-04T02:31:16.368Z,24.17
2017-11-04T02:33:43.844Z,26.07
2017-11-04T02:36:11.361Z,26.17
2017-11-04T02:38:38.847Z,25.67
2017-11-04T02:41:06.352Z,24.87
2017-11-04T02:43:33.833Z,23.80
2017-11-04T02:46:01.332Z,24.80
2017-11-04T02:48:28.816Z,24.53
2017-11-04T02:50:56.329Z,24.83
2017-11-04T02:53:23.820Z,23.90
2017-11-04T02:55:52.104Z,24.23
2017-11-04T02:58:19.596Z,22.90
2017-11-04T03:00:47.881Z,25.37
2017-11-04T03:03:15.368Z,23.03
2017-11-04T03:05:42.848Z,25.10
2017-11-04T03:08:10.348Z,24.83
2017-11-04T03:10:37.827Z,24.10
2017-11-04T03:13:05.328Z,24.10
2017-11-04T03:15:33.572Z,24.50
2017-11-04T03:18:01.172Z,23.67
2017-11-04T03:20:28.656Z,24.57
2017-11-04T03:22:56.152Z,24.27
2017-11-04T03:25:23.635Z,24.07
2017-11-04T03:27:51.144Z,23.50
2017-11-04T03:30:18.625Z,23.00
2017-11-04T03:32:46.131Z,23.77
2017-11-04T03:35:13.624Z,22.60
2017-11-04T03:37:41.123Z,24.80
2017-11-04T03:40:08.600Z,23.33
2017-11-04T03:42:36.104Z,22.20
2017-11-04T03:45:03.589Z,24.30
2017-11-04T03:47:31.092Z,23.30
2017-11-04T03:49:58.575Z,23.53
2017-11-04T03:52:26.084Z,22.07
2017-11-04T03:54:53.564Z,23.17
2017-11-04T03:57:21.068Z,22.20
2017-11-04T03:59:48.552Z,23.50
2017-11-04T04:02:16.052Z,22.03
2017-11-04T04:04:43.535Z,23.10
2017-11-04T04:07:11.040Z,23.07
2017-11-04T04:09:38.527Z,22.33
2017-11-04T04:12:06.028Z,24.43
2017-11-04T04:14:34.288Z,24.13
2017-11-04T04:17:01.797Z,23.73
2017-11-04T04:19:30.041Z,22.17
2017-11-04T04:21:57.536Z,22.30
2017-11-04T04:24:25.785Z,22.70
2017-11-04T04:26:53.288Z,22.93
2017-11-04T04:29:20.777Z,22.77
2017-11-04T04:31:49.044Z,25.07
2017-11-04T04:34:16.528Z,23.27
2017-11-04T04:36:44.800Z,21.73
2017-11-04T04:39:12.280Z,24.03
2017-11-04T04:41:40.548Z,22.47
2017-11-04T04:44:08.029Z,21.83
2017-11-04T04:46:35.533Z,21.40
2017-11-04T04:49:03.016Z,23.27
2017-11-04T04:51:30.532Z,21.07
2017-11-04T04:53:58.017Z,21.87
2017-11-04T04:56:26.289Z,23.03
2017-11-04T04:58:53.771Z,21.37
2017-11-04T05:01:21.265Z,22.43
2017-11-04T05:03:48.772Z,23.47
2017-11-04T05:06:16.255Z,20.27
2017-11-04T05:08:43.755Z,22.60
2017-11-04T05:11:12.017Z,21.63
2017-11-04T05:13:39.512Z,21.13
2017-11-04T05:16:07.001Z,22.10
2017-11-04T05:18:35.268Z,22.70
2017-11-04T05:21:02.748Z,21.50
2017-11-04T05:23:31.018Z,21.80
2017-11-04T05:25:58.501Z,22.17
2017-11-04T05:28:26.772Z,20.33
2017-11-04T05:30:54.256Z,20.40
2017-11-04T05:33:21.765Z,21.07
2017-11-04T05:35:49.252Z,21.90
2017-11-04T05:38:16.749Z,21.80
2017-11-04T05:40:44.247Z,21.50
2017-11-04T05:43:12.509Z,22.80
2017-11-04T05:45:39.988Z,20.57
2017-11-04T05:48:07.489Z,23.50
2017-11-04T05:50:34.975Z,21.80
2017-11-04T05:53:02.482Z,23.40
2017-11-04T05:55:29.963Z,22.57
2017-11-04T05:57:57.468Z,23.30
2017-11-04T06:00:24.955Z,22.47
2017-11-04T06:02:52.476Z,22.07
2017-11-04T06:05:19.961Z,22.07
2017-11-04T06:07:48.236Z,23.00
2017-11-04T06:10:15.723Z,21.53
2017-11-04T06:12:43.997Z,22.50
2017-11-04T06:15:11.480Z,21.67
2017-11-04T06:17:39.747Z,21.87
2017-11-04T06:20:07.243Z,20.87
2017-11-04T06:22:35.516Z,22.93
2017-11-04T06:25:03.002Z,21.70
2017-11-04T06:27:31.280Z,24.70
2017-11-04T06:29:59.533Z,22.90
2017-11-04T06:32:27.045Z,21.87
2017-11-04T06:34:55.319Z,22.80
2017-11-04T06:37:23.680Z,22.30
2017-11-04T06:39:51.168Z,23.40
2017-11-04T06:42:21.792Z,20.60
2017-11-04T06:44:49.281Z,22.50
2017-11-04T06:47:16.776Z,21.87
2017-11-04T06:49:45.029Z,22.47
2017-11-04T06:52:12.539Z,23.87
2017-11-04T06:54:40.801Z,22.17
2017-11-04T06:57:08.320Z,23.20
2017-11-04T06:59:35.803Z,23.03
2017-11-04T07:02:04.069Z,22.80
2017-11-04T07:04:31.560Z,23.10
2017-11-04T07:06:59.068Z,24.03
2017-11-04T07:09:26.560Z,21.37
2017-11-04T07:11:54.833Z,21.47
2017-11-04T07:14:22.336Z,23.20
2017-11-04T07:16:49.813Z,21.97
2017-11-04T07:19:17.316Z,23.50
2017-11-04T07:21:44.812Z,24.07
2017-11-04T07:24:12.315Z,25.47
2017-11-04T07:26:39.806Z,25.90
2017-11-04T07:29:07.312Z,25.67
2017-11-04T07:31:34.799Z,24.53
2017-11-04T07:34:02.309Z,24.40
2017-11-04T07:36:29.793Z,26.07
2017-11-04T07:39:05.765Z,25.63
2017-11-04T07:41:33.252Z,28.87
2017-11-04T07:44:00.752Z,29.23
2017-11-04T07:46:28.240Z,25.20
2017-11-04T07:48:56.516Z,24.67
2017-11-04T07:51:24.770Z,23.60
2017-11-04T07:53:52.272Z,23.83
2017-11-04T07:56:20.525Z,23.40
2017-11-04T07:58:48.028Z,24.97
2017-11-04T08:01:15.516Z,25.00
2017-11-04T08:03:43.801Z,23.80
2017-11-04T08:06:12.064Z,24.60
2017-11-04T08:08:39.573Z,23.50
2017-11-04T08:11:07.056Z,23.33
2017-11-04T08:13:37.636Z,24.33
2017-11-04T08:16:05.118Z,24.00
2017-11-04T08:18:32.624Z,26.93
2017-11-04T08:21:00.112Z,22.90
2017-11-04T08:23:27.620Z,26.80
2017-11-04T08:25:55.105Z,25.63
2017-11-04T08:28:22.627Z,24.50
2017-11-04T08:30:50.120Z,46.53
2017-11-04T08:33:17.627Z,26.90
2017-11-04T08:35:45.875Z,26.77
2017-11-04T08:38:13.388Z,27.07
2017-11-04T08:40:41.745Z,27.17
2017-11-04T08:43:09.351Z,27.90
2017-11-04T08:45:36.893Z,25.03
2017-11-04T08:48:04.416Z,27.20
2017-11-04T08:50:32.005Z,53.20
2017-11-04T08:52:59.498Z,39.07
2017-11-04T08:55:27.057Z,34.70
2017-11-04T08:57:54.544Z,29.00
2017-11-04T09:00:22.045Z,27.90
2017-11-04T09:02:50.293Z,27.80
2017-11-04T09:05:17.803Z,30.40
2017-11-04T09:07:46.064Z,28.70
2017-11-04T09:10:13.565Z,27.20
2017-11-04T09:12:41.811Z,27.47
2017-11-04T09:15:09.332Z,26.03
2017-11-04T09:17:36.815Z,30.60
2017-11-04T09:20:04.331Z,32.10
2017-11-04T09:22:31.830Z,26.87
2017-11-04T09:25:00.104Z,27.40
2017-11-04T09:27:28.373Z,27.87
2017-11-04T09:29:55.872Z,27.00
2017-11-04T09:32:24.341Z,28.33
2017-11-04T09:34:51.861Z,34.47
2017-11-04T09:37:19.357Z,28.80
2017-11-04T09:39:46.888Z,28.43
2017-11-04T09:42:14.374Z,27.43
2017-11-04T09:44:41.862Z,29.27
2017-11-04T09:47:09.364Z,30.67
2017-11-04T09:49:36.972Z,29.07
2017-11-04T09:52:08.293Z,30.90
2017-11-04T09:54:35.787Z,29.00
2017-11-04T09:57:04.063Z,28.00
2017-11-04T09:59:38.948Z,29.37
2017-11-04T10:02:06.448Z,26.97
2017-11-04T10:04:33.941Z,28.77
2017-11-04T10:07:01.465Z,30.00
2017-11-04T10:09:28.962Z,27.57
2017-11-04T10:11:56.484Z,27.00
2017-11-04T10:14:23.977Z,30.63
2017-11-04T10:16:52.436Z,29.37
2017-11-04T10:19:20.688Z,28.13
2017-11-04T10:21:48.201Z,27.97
2017-11-04T10:24:16.473Z,24.90
2017-11-04T10:26:44.004Z,24.03
2017-11-04T10:29:11.499Z,27.40
2017-11-04T10:31:39.020Z,27.13
2017-11-04T10:34:06.520Z,27.93
2017-11-04T10:36:34.043Z,28.03
2017-11-04T10:39:02.312Z,26.83
2017-11-04T10:41:29.845Z,26.70
2017-11-04T10:43:57.342Z,26.20
2017-11-04T10:46:27.964Z,27.07
2017-11-04T10:48:55.483Z,28.67
2017-11-04T10:51:23.738Z,26.47
2017-11-04T10:53:51.256Z,26.57
2017-11-04T10:56:18.745Z,26.70
2017-11-04T10:58:46.261Z,24.23
2017-11-04T11:01:13.757Z,26.07
2017-11-04T11:03:42.036Z,27.13
2017-11-04T11:06:10.294Z,27.03
2017-11-04T11:08:37.820Z,26.33
2017-11-04T11:11:05.313Z,27.33
2017-11-04T11:13:32.825Z,25.73
2017-11-04T11:16:00.315Z,28.10
2017-11-04T11:18:28.599Z,26.50
2017-11-04T11:20:57.848Z,26.90
2017-11-04T11:23:25.366Z,27.67
2017-11-04T11:25:52.861Z,28.27
2017-11-04T11:28:20.368Z,28.47
2017-11-04T11:30:47.865Z,26.60
2017-11-04T11:33:15.382Z,29.90
2017-11-04T11:35:42.880Z,26.83
2017-11-04T11:38:10.396Z,27.87
2017-11-04T11:40:38.648Z,26.47
2017-11-04T11:43:06.160Z,27.57
2017-11-04T11:45:34.443Z,28.10
2017-11-04T11:48:02.764Z,29.30
2017-11-04T11:50:30.249Z,27.90
2017-11-04T11:52:57.736Z,29.07
2017-11-04T11:55:25.240Z,30.20
2017-11-04T11:57:53.490Z,30.67
2017-11-04T12:00:20.999Z,30.43
2017-11-04T12:02:49.256Z,26.90
2017-11-04T12:05:16.764Z,27.57
2017-11-04T12:07:45.012Z,30.47
2017-11-04T12:10:12.516Z,29.23
2017-11-04T12:12:40.769Z,28.30
2017-11-04T12:15:08.271Z,28.67
2017-11-04T12:17:36.537Z,27.40
2017-11-04T12:20:04.043Z,26.80
2017-11-04T12:22:32.287Z,29.73
2017-11-04T12:24:59.787Z,29.23
2017-11-04T12:27:27.274Z,29.97
2017-11-04T12:29:55.546Z,31.37
2017-11-04T12:32:23.795Z,29.07
2017-11-04T12:34:51.308Z,28.30
2017-11-04T12:37:19.570Z,27.70
2017-11-04T12:39:47.080Z,27.33
2017-11-04T12:42:14.663Z,28.57
2017-11-04T12:44:42.174Z,28.20
2017-11-04T12:47:09.664Z,26.87
2017-11-04T12:49:37.175Z,25.40
2017-11-04T12:52:04.665Z,26.30
2017-11-04T12:54:32.168Z,27.53
2017-11-04T12:56:59.657Z,27.67
2017-11-04T12:59:27.935Z,26.63
2017-11-04T13:01:55.429Z,26.30
2017-11-04T13:04:23.705Z,32.67
2017-11-04T13:06:51.959Z,31.70
2017-11-04T13:09:19.464Z,30.23
2017-11-04T13:11:47.722Z,28.90
2017-11-04T13:14:15.225Z,29.00
2017-11-04T13:16:43.488Z,30.40
2017-11-04T13:19:10.998Z,30.60
2017-11-04T13:21:38.492Z,28.30
2017-11-04T13:24:06.009Z,27.30
2017-11-04T13:26:33.495Z,27.70
2017-11-04T13:29:01.768Z,33.90
2017-11-04T13:31:29.251Z,28.17
2017-11-04T13:33:57.523Z,26.00
2017-11-04T13:36:25.009Z,26.60
2017-11-04T13:38:53.275Z,25.93
2017-11-04T13:41:20.764Z,27.03
2017-11-04T13:43:48.271Z,27.27
2017-11-04T13:46:15.758Z,27.77
2017-11-04T13:48:43.264Z,28.73
2017-11-04T13:51:10.762Z,27.97
2017-11-04T13:53:38.277Z,29.33
2017-11-04T13:56:05.772Z,27.67
2017-11-04T13:58:33.261Z,28.53
2017-11-04T14:01:01.528Z,26.47
2017-11-04T14:03:29.020Z,27.10
2017-11-04T14:05:57.287Z,27.70
2017-11-04T14:08:24.777Z,30.40
2017-11-04T14:10:54.060Z,29.87
2017-11-04T14:13:31.409Z,31.37
2017-11-04T14:15:58.916Z,29.17
2017-11-04T14:18:26.403Z,29.40
2017-11-04T14:20:53.937Z,30.03
2017-11-04T14:23:21.474Z,28.80
2017-11-04T14:25:49.752Z,28.60
2017-11-04T14:28:17.245Z,29.80
2017-11-04T14:30:44.743Z,33.60
2017-11-04T14:33:12.223Z,30.40
2017-11-04T14:35:39.730Z,30.33
2017-11-04T14:38:07.209Z,30.47
2017-11-04T14:40:35.481Z,29.97
2017-11-04T14:43:02.973Z,29.77
2017-11-04T14:45:31.240Z,30.23
2017-11-04T14:47:58.720Z,30.83
2017-11-04T14:50:26.232Z,31.67
2017-11-04T14:52:54.495Z,29.20
2017-11-04T14:55:22.768Z,28.17
2017-11-04T14:57:51.020Z,28.30
2017-11-04T15:00:18.523Z,29.70
2017-11-04T15:02:46.776Z,29.93
2017-11-04T15:05:14.280Z,28.47
2017-11-04T15:07:41.766Z,29.23
2017-11-04T15:10:10.028Z,31.03
2017-11-04T15:12:37.507Z,28.40
2017-11-04T15:15:05.014Z,27.80
2017-11-04T15:17:32.507Z,26.10
2017-11-04T15:20:00.007Z,24.50
2017-11-04T15:22:27.497Z,24.10
2017-11-04T15:24:55.772Z,25.37
2017-11-04T15:27:23.272Z,23.73
2017-11-04T15:29:50.784Z,24.43
2017-11-04T15:32:18.263Z,24.60
2017-11-04T15:34:45.764Z,23.10
2017-11-04T15:37:14.011Z,22.00
2017-11-04T15:39:41.513Z,23.33
2017-11-04T15:42:09.001Z,21.53
2017-11-04T15:44:36.512Z,23.67
2017-11-04T15:47:04.000Z,22.13
2017-11-04T15:49:31.504Z,22.50
2017-11-04T15:51:59.760Z,25.63
2017-11-04T15:54:27.269Z,21.60
2017-11-04T15:56:55.526Z,27.70
2017-11-04T15:59:23.037Z,22.73
2017-11-04T16:01:50.529Z,23.83
2017-11-04T16:04:18.037Z,24.33
2017-11-04T16:06:45.517Z,23.83
2017-11-04T16:09:13.020Z,30.60
2017-11-04T16:11:40.529Z,27.43
2017-11-04T16:14:08.020Z,26.47
2017-11-04T16:16:35.532Z,27.03
2017-11-04T16:19:03.020Z,25.90
2017-11-04T16:21:30.537Z,22.90
2017-11-04T16:23:58.028Z,23.20
2017-11-04T16:26:25.539Z,22.77
2017-11-04T16:28:53.016Z,31.97
2017-11-04T16:31:20.525Z,47.47
2017-11-04T16:33:48.009Z,65.07
2017-11-04T16:36:16.271Z,43.70
2017-11-04T16:38:43.760Z,35.40
2017-11-04T16:41:12.033Z,31.47
2017-11-04T16:43:39.521Z,29.50
2017-11-04T16:46:07.787Z,27.87
2017-11-04T16:48:35.273Z,24.70
2017-11-04T16:51:03.553Z,21.90
2017-11-04T16:53:31.046Z,25.37
2017-11-04T16:55:59.319Z,23.57
2017-11-04T16:58:27.576Z,24.00
2017-11-04T17:00:55.080Z,25.40
2017-11-04T17:03:23.333Z,24.13
2017-11-04T17:05:50.838Z,23.60
2017-11-04T17:08:19.089Z,23.10
2017-11-04T17:10:46.592Z,23.07
2017-11-04T17:13:24.007Z,19.20
2017-11-04T17:15:52.281Z,18.70
2017-11-04T17:18:19.843Z,19.90
2017-11-04T17:20:47.360Z,20.17
2017-11-04T17:23:14.842Z,20.80
2017-11-04T17:25:42.345Z,38.90
2017-11-04T17:28:09.833Z,29.00
2017-11-04T17:30:37.345Z,36.63
2017-11-04T17:33:04.828Z,21.40
2017-11-04T17:35:32.331Z,18.43
2017-11-04T17:37:59.816Z,15.87
2017-11-04T17:40:27.322Z,15.73
2017-11-04T17:42:54.812Z,15.23
2017-11-04T17:45:22.317Z,15.27
2017-11-04T17:47:49.820Z,15.13
2017-11-04T17:50:17.333Z,15.47
2017-11-04T17:52:44.829Z,16.30
2017-11-04T17:55:12.332Z,15.30
2017-11-04T17:57:39.811Z,19.00
2017-11-04T18:00:07.322Z,17.17
2017-11-04T18:02:34.834Z,20.90
2017-11-04T18:05:03.109Z,23.60
2017-11-04T18:07:31.369Z,23.10
2017-11-04T18:09:58.869Z,21.40
2017-11-04T18:12:26.360Z,21.40
2017-11-04T18:14:53.867Z,19.67
2017-11-04T18:17:21.372Z,19.70
2017-11-04T18:19:48.884Z,18.20
2017-11-04T18:22:16.367Z,20.07
2017-11-04T18:24:43.872Z,27.57
2017-11-04T18:27:11.357Z,38.60
2017-11-04T18:29:38.869Z,21.57
2017-11-04T18:32:06.371Z,21.10
2017-11-04T18:34:33.848Z,19.17
2017-11-04T18:37:01.352Z,17.70
2017-11-04T18:39:29.601Z,17.50
2017-11-04T18:41:57.107Z,18.23
2017-11-04T18:44:25.360Z,21.30
2017-11-04T18:46:52.866Z,23.70
2017-11-04T18:49:21.113Z,25.30
2017-11-04T18:51:48.616Z,23.53
2017-11-04T18:54:16.864Z,22.73
2017-11-04T18:56:44.380Z,23.53
2017-11-04T18:59:12.636Z,25.00
2017-11-04T19:01:40.135Z,26.57
2017-11-04T19:04:08.384Z,28.13
2017-11-04T19:06:35.890Z,27.07
2017-11-04T19:09:04.147Z,26.40
2017-11-04T19:11:31.663Z,26.40
2017-11-04T19:13:59.176Z,31.73
2017-11-04T19:16:26.680Z,31.60
2017-11-04T19:18:54.168Z,30.50
2017-11-04T19:21:22.435Z,31.00
2017-11-04T19:23:49.924Z,27.53
2017-11-04T19:26:18.193Z,27.30
2017-11-04T19:28:45.677Z,28.30
2017-11-04T19:31:13.949Z,29.07
2017-11-04T19:33:41.444Z,30.97
2017-11-04T19:36:10.717Z,32.57
2017-11-04T19:38:38.204Z,32.07
2017-11-04T19:41:05.749Z,30.77
2017-11-04T19:43:33.229Z,32.23
2017-11-04T19:46:00.712Z,34.37
2017-11-04T19:48:28.212Z,63.80
2017-11-04T19:50:56.464Z,65.07
2017-11-04T19:53:23.971Z,34.80
2017-11-04T19:55:51.457Z,31.30
2017-11-04T19:58:18.960Z,32.53
2017-11-04T20:00:46.444Z,31.77
2017-11-04T20:03:13.953Z,33.33
2017-11-04T20:05:41.437Z,32.50
2017-11-04T20:08:08.948Z,30.47
2017-11-04T20:10:36.423Z,30.57
2017-11-04T20:13:03.925Z,33.60
2017-11-04T20:15:32.182Z,34.90
2017-11-04T20:17:59.696Z,34.50
2017-11-04T20:20:27.187Z,34.93
2017-11-04T20:22:54.706Z,32.90
2017-11-04T20:25:22.967Z,31.90
2017-11-04T20:27:50.467Z,33.40
2017-11-04T20:30:17.948Z,30.90
2017-11-04T20:32:46.212Z,33.97
2017-11-04T20:35:13.693Z,30.57
2017-11-04T20:37:41.212Z,32.33
2017-11-04T20:40:08.696Z,31.80
2017-11-04T20:42:36.183Z,33.83
2017-11-04T20:45:03.693Z,36.73
2017-11-04T20:47:31.952Z,35.83
2017-11-04T20:49:59.464Z,34.37
2017-11-04T20:52:26.948Z,38.27
2017-11-04T20:54:54.449Z,44.30
2017-11-04T20:57:21.936Z,36.03
2017-11-04T20:59:49.449Z,33.77
2017-11-04T21:02:16.928Z,34.03
2017-11-04T21:04:44.431Z,35.00
2017-11-04T21:07:11.912Z,34.07
2017-11-04T21:09:39.421Z,36.10
2017-11-04T21:12:06.916Z,35.03
2017-11-04T21:14:34.435Z,32.50
2017-11-04T21:17:01.920Z,32.63
2017-11-04T21:19:30.184Z,34.60
2017-11-04T21:21:57.668Z,33.90
2017-11-04T21:24:25.941Z,32.97
2017-11-04T21:26:53.428Z,31.00
2017-11-04T21:29:21.709Z,33.13
2017-11-04T21:31:49.202Z,33.13
2017-11-04T21:34:17.494Z,31.20
2017-11-04T21:36:44.977Z,30.93
2017-11-04T21:39:12.469Z,27.87
2017-11-04T21:41:39.976Z,29.03
2017-11-04T21:44:07.494Z,28.10
2017-11-04T21:46:35.013Z,27.20
2017-11-04T21:49:02.504Z,29.00
2017-11-04T21:51:30.776Z,30.20
2017-11-04T21:53:58.268Z,31.50
2017-11-04T21:56:26.544Z,31.17
2017-11-04T21:58:54.801Z,31.83
2017-11-04T22:01:22.308Z,31.77
2017-11-04T22:03:50.565Z,27.60
2017-11-04T22:06:18.078Z,26.23
2017-11-04T22:08:45.568Z,25.90
2017-11-04T22:11:13.071Z,24.67
2017-11-04T22:13:40.572Z,25.77
2017-11-04T22:16:08.836Z,27.47
2017-11-04T22:18:36.316Z,25.10
2017-11-04T22:21:03.816Z,24.00
2017-11-04T22:23:32.069Z,23.00
2017-11-04T22:25:59.580Z,23.10
2017-11-04T22:28:27.072Z,23.33
2017-11-04T22:30:54.583Z,24.07
2017-11-04T22:33:22.067Z,23.40
2017-11-04T22:35:50.345Z,65.37
2017-11-04T22:38:17.837Z,32.77
2017-11-04T22:40:46.113Z,22.83
2017-11-04T22:43:14.365Z,22.77
2017-11-04T22:45:41.864Z,23.37
2017-11-04T22:48:09.353Z,21.57
2017-11-04T22:50:37.633Z,20.37
2017-11-04T22:53:05.122Z,22.50
2017-11-04T22:55:32.608Z,20.73
2017-11-04T22:58:00.113Z,22.20
2017-11-04T23:00:27.600Z,21.80
2017-11-04T23:02:55.105Z,22.20
2017-11-04T23:05:22.592Z,23.77
2017-11-04T23:07:50.096Z,25.33
2017-11-04T23:10:17.585Z,21.80
2017-11-04T23:12:45.865Z,21.67
2017-11-04T23:15:13.348Z,20.97
2017-11-04T23:17:41.615Z,19.70
2017-11-04T23:20:09.104Z,18.97
2017-11-04T23:22:36.634Z,17.97
2017-11-04T23:25:04.129Z,17.80
2017-11-04T23:27:31.636Z,30.23
2017-11-04T23:29:59.128Z,30.57
2017-11-04T23:32:26.637Z,19.13
2017-11-04T23:34:54.128Z,18.90
2017-11-04T23:37:22.400Z,19.40
2017-11-04T23:39:49.892Z,20.23
2017-11-04T23:42:18.165Z,21.30
2017-11-04T23:44:45.652Z,19.57
2017-11-04T23:47:13.920Z,22.80
2017-11-04T23:49:41.408Z,20.17
2017-11-04T23:52:09.680Z,20.80
2017-11-04T23:54:37.160Z,20.83
2017-11-04T23:57:05.427Z,20.93
2017-11-04T23:59:32.909Z,20.90
